Data for 09/08/2006

Time Sea-Level Adjusted Pressure Absolute Pressure Temperature Relative Humidity Dew Point   
(mb) (inHg) (mb) (inHg) (C) (F) (%) (C) (F)
00:05 1018 30.06 847 25.01 19.3 66.7 26 -0.6 30.9
00:10 1018 30.06 847 25.01 19 66.2 27 -0.5 31.1
00:15 1018 30.06 847 25.01 18.2 64.8 29 -0.1 31.7
00:20 1018 30.06 847 25.01 18 64.3 28 -0.9 30.4
00:25 1018 30.06 847 25.01 18.3 64.9 27 -0.8 30.5
00:30 1018 30.06 847 25.01 18 64.4 29 -0.2 31.6
00:35 1018 30.06 847 25.01 17.9 64.2 28 -0.7 30.8
00:40 1018 30.06 847 25.01 18 64.4 28 -0.8 30.6
00:45 1018 30.06 847 25.01 18.1 64.6 27 -1 30.2
00:50 1018 30.06 847 25.01 18.2 64.7 27 -1 30.2
00:55 1018 30.06 847 25.01 18.1 64.6 27 -0.9 30.4
01:00 1018 30.06 847 25.01 18 64.3 27 -1.1 30.1
01:05 1018 30.06 847 25.01 18.2 64.7 27 -1.1 30
01:10 1018 30.06 847 25.01 18.4 65.1 27 -1 30.2
01:15 1018 30.06 847 25.01 18.1 64.6 28 -0.4 31.2
01:20 1018 30.06 847 25.01 17.8 64 30 -0.1 31.8
01:25 1018 30.06 847 25.01 17.3 63.1 30 -0.3 31.4
01:30 1018 30.06 847 25.01 16.9 62.5 31 -0.2 31.6
01:35 1018 30.06 847 25.01 16.5 61.8 30 -0.9 30.4
01:40 1018 30.06 847 25.01 16.8 62.2 30 -0.9 30.3
01:45 1018 30.06 847 25.01 17.3 63.1 29 -1 30.2
01:50 1018 30.06 847 25.01 17.5 63.5 29 -0.8 30.6
01:55 1018 30.06 847 25.01 17.5 63.5 28 -0.9 30.4
02:00 1018 30.06 847 25.01 17.6 63.6 28 -1.1 30.1
02:05 1018 30.06 847 25.01 18 64.3 27 -1.1 30
02:10 1018 30.06 847 25.01 18.2 64.8 26 -1.2 29.8
02:15 1018 30.06 847 25.01 18.2 64.8 27 -0.9 30.3
02:20 1018 30.06 847 25.01 18.1 64.5 27 -0.9 30.3
02:25 1018 30.06 847 25.01 17.9 64.2 28 -0.9 30.5
02:30 1018 30.06 847 25.01 17.9 64.2 27 -1 30.2
02:35 1017 30.03 847 25.01 17.9 64.3 27 -1.2 29.9
02:40 1018 30.06 847 25.01 18 64.5 27 -1.2 29.9
02:45 1018 30.06 847 25.01 18 64.4 27 -1 30.2
02:50 1017 30.03 847 25.01 18.1 64.5 27 -1 30.2
02:55 1018 30.06 847 25.01 18.1 64.6 27 -0.9 30.3
03:00 1017 30.03 847 25.01 18.2 64.7 27 -0.9 30.4
03:05 1017 30.03 847 25.01 18.2 64.8 27 -1 30.2
03:10 1017 30.03 847 25.01 18.3 64.9 27 -0.9 30.4
03:15 1017 30.03 847 25.01 18.2 64.8 28 -0.7 30.7
03:20 1017 30.03 847 25.01 18.1 64.6 28 -0.7 30.7
03:25 1017 30.03 847 25.01 17.9 64.3 28 -0.8 30.6
03:30 1017 30.03 847 25.01 17.9 64.1 28 -0.8 30.6
03:35 1017 30.03 847 25.01 17.9 64.1 28 -0.9 30.4
03:40 1017 30.03 847 25.01 17.7 63.8 28 -0.8 30.6
03:45 1017 30.03 847 25.01 17.6 63.6 29 -0.8 30.6
03:50 1017 30.03 847 25.01 17.4 63.4 29 -0.8 30.6
03:55 1018 30.06 847 25.01 17.3 63.2 29 -1 30.2
04:00 1018 30.06 847 25.01 17.5 63.5 28 -1.2 29.8
04:05 1018 30.06 847 25.01 17.5 63.6 28 -1.2 29.9
04:10 1018 30.06 847 25.01 17.5 63.4 28 -1.3 29.6
04:15 1018 30.06 847 25.01 17.5 63.5 27 -1.4 29.6
04:20 1018 30.06 847 25.01 17.4 63.4 28 -1.1 30
04:25 1018 30.06 847 25.01 17.3 63.2 28 -1.4 29.5
04:30 1018 30.06 847 25.01 17.3 63.1 28 -1.4 29.6
04:35 1018 30.06 847 25.01 17.4 63.3 28 -1.4 29.5
04:40 1018 30.06 847 25.01 17.3 63.2 28 -1.1 30
04:45 1018 30.06 847 25.01 17.2 62.9 28 -1.2 29.9
04:50 1018 30.06 847 25.01 17 62.5 29 -1.2 29.8
04:55 1018 30.06 847 25.01 17 62.6 29 -1.2 29.8
05:00 1018 30.06 847 25.01 16.9 62.4 29 -1.1 30
05:05 1018 30.06 847 25.01 16.8 62.3 29 -1.1 29.9
05:10 1018 30.06 847 25.01 16.9 62.3 29 -0.9 30.3
05:15 1018 30.06 847 25.01 16.7 62 29 -1.1 30
05:20 1018 30.06 847 25.01 16.7 62.1 30 -0.9 30.4
05:25 1018 30.06 847 25.01 16.5 61.7 30 -0.8 30.5
05:30 1018 30.06 847 25.01 16.4 61.5 31 -0.9 30.4
05:35 1018 30.06 847 25.01 16.3 61.3 31 -0.9 30.4
05:40 1018 30.06 847 25.01 16.1 61.1 31 -0.7 30.7
05:45 1018 30.06 847 25.01 16 60.8 31 -0.9 30.5
05:50 1018 30.06 847 25.01 16.2 61.1 31 -0.8 30.6
05:55 1018 30.06 847 25.01 16.1 61 31 -0.7 30.8
06:00 1018 30.06 847 25.01 16 60.9 32 -0.6 30.9
06:05 1018 30.06 847 25.01 16 60.7 32 -0.6 30.9
06:10 1018 30.06 847 25.01 15.9 60.7 32 -0.6 30.8
06:15 1018 30.06 847 25.01 15.9 60.6 32 -0.6 30.9
06:20 1018 30.06 847 25.01 15.9 60.5 32 -0.7 30.7
06:25 1018 30.06 847 25.01 15.9 60.6 32 -0.7 30.8
06:30 1018 30.06 847 25.01 15.7 60.3 32 -0.7 30.7
06:35 1018 30.06 847 25.01 15.5 59.9 33 -0.5 31.2
06:40 1018 30.06 847 25.01 15.2 59.4 35 -0.1 31.8
06:45 1018 30.06 847 25.01 15 58.9 34 -0.5 31
06:50 1018 30.06 847 25.01 15 59.1 34 -0.5 31.2
06:55 1018 30.06 847 25.01 14.8 58.7 36 -0.2 31.7
07:00 1018 30.06 847 25.01 14.4 58 37 0.2 32.3
07:05 1018 30.06 847 25.01 14.5 58 36 -0.3 31.5
07:10 1018 30.06 847 25.01 14.5 58 37 -0.1 31.7
07:15 1018 30.06 847 25.01 14.3 57.8 37 -0.2 31.7
07:20 1018 30.06 847 25.01 14.3 57.8 38 0.3 32.6
07:25 1018 30.06 847 25.01 14.1 57.3 39 0.4 32.7
07:30 1018 30.06 847 25.01 14 57.3 39 0.5 33
07:35 1018 30.06 847 25.01 14.2 57.5 38 0.3 32.5
07:40 1018 30.06 847 25.01 14.1 57.4 39 0.6 33.1
07:45 1018 30.06 847 25.01 14 57.2 41 1 33.7
07:50 1018 30.06 847 25.01 13.7 56.7 41 0.9 33.6
07:55 1018 30.06 847 25.01 13.8 56.9 40 0.5 32.9
08:00 1018 30.06 847 25.01 14.2 57.5 40 0.9 33.6
08:05 1018 30.06 847 25.01 14.1 57.4 40 0.8 33.4
08:10 1018 30.06 847 25.01 14.3 57.8 40 1.1 34.1
08:15 1018 30.06 847 25.01 14.5 58.1 39 0.8 33.5
08:20 1018 30.06 847 25.01 14.7 58.5 40 1.3 34.4
08:25 1018 30.06 847 25.01 14.9 58.8 40 1.5 34.6
08:30 1018 30.06 847 25.01 14.7 58.4 41 1.7 35.1
08:35 1018 30.06 847 25.01 14.7 58.4 49 4.1 39.3
08:40 1018 30.06 847 25.01 14.9 58.8 42 2.2 36
08:45 1018 30.06 848 25.04 15.1 59.2 45 3.4 38.2
08:50 1018 30.06 848 25.04 15.7 60.3 40 2.2 35.9
08:55 1018 30.06 848 25.04 16.1 60.9 39 2.3 36.1
09:00 1018 30.06 848 25.04 16.3 61.3 44 4 39.2
09:05 1018 30.06 847 25.01 16.4 61.6 39 2.7 36.9
09:10 1018 30.06 847 25.01 16.5 61.7 38 2.2 36
09:15 1018 30.06 847 25.01 17 62.6 38 2.7 36.8
09:20 1018 30.06 847 25.01 17.5 63.5 36 2.4 36.3
09:25 1018 30.06 847 25.01 17.6 63.8 37 3.1 37.5
09:30 1018 30.06 848 25.04 17.8 64 35 2.5 36.4
09:35 1018 30.06 848 25.04 17.9 64.1 37 3.2 37.7
09:40 1018 30.06 848 25.04 17.9 64.1 37 3.2 37.7
09:45 1018 30.06 848 25.04 18.4 65.1 35 2.8 37.1
09:50 1018 30.06 848 25.04 19.2 66.5 33 2.8 37
09:55 1018 30.06 848 25.04 19.9 67.8 32 2.9 37.2
10:00 1018 30.06 848 25.04 19.8 67.6 32 2.7 36.9
10:05 1018 30.06 848 25.04 19.4 66.9 33 2.9 37.2
10:10 1018 30.06 848 25.04 19.3 66.8 34 3.2 37.8
10:15 1018 30.06 848 25.04 19.1 66.3 34 3 37.3
10:20 1018 30.06 848 25.04 19 66.1 35 3.1 37.6
10:25 1018 30.06 848 25.04 19.1 66.3 38 4.5 40.1
10:30 1018 30.06 848 25.04 19.3 66.8 38 4.7 40.5
10:35 1019 30.09 848 25.04 19.7 67.4 33 3 37.4
10:40 1019 30.09 848 25.04 19.9 67.9 35 4 39.3
10:45 1019 30.09 848 25.04 19.6 67.4 36 4.5 40
10:50 1019 30.09 848 25.04 19.8 67.6 36 4.5 40.2
10:55 1019 30.09 848 25.04 19.7 67.5 37 4.7 40.5
11:00 1019 30.09 848 25.04 19.7 67.5 34 3.7 38.7
11:05 1019 30.09 848 25.04 19.6 67.2 35 3.9 39
11:10 1018 30.06 848 25.04 19.5 67.1 37 4.6 40.2
11:15 1019 30.09 848 25.04 19.8 67.6 35 3.9 39
11:20 1019 30.09 848 25.04 19.6 67.2 34 3.6 38.6
11:25 1018 30.06 848 25.04 19.5 67 35 3.7 38.6
11:30 1018 30.06 848 25.04 19.7 67.5 33 3.2 37.8
11:35 1018 30.06 848 25.04 20 68.1 33 3.4 38.2
11:40 1019 30.09 848 25.04 19.3 66.8 34 3.1 37.6
11:45 1018 30.06 848 25.04 19 66.2 34 2.8 37
11:50 1018 30.06 848 25.04 19.4 66.9 34 3.2 37.8
11:55 1018 30.06 848 25.04 20 68 32 3.1 37.5
12:00 1018 30.06 848 25.04 20.1 68.2 32 3.1 37.6
12:05 1018 30.06 848 25.04 20.3 68.6 32 3.1 37.6
12:10 1018 30.06 848 25.04 20.5 69 32 3.6 38.4
12:15 1018 30.06 848 25.04 20.2 68.4 32 3.2 37.8
12:20 1018 30.06 848 25.04 20 68 33 3.4 38.1
12:25 1018 30.06 848 25.04 20 68 32 3 37.5
12:30 1018 30.06 848 25.04 20.1 68.1 33 3.5 38.3
12:35 1018 30.06 848 25.04 20.2 68.3 33 3.4 38.2
12:40 1018 30.06 848 25.04 19.9 67.9 33 3.3 38
12:45 1018 30.06 848 25.04 19.8 67.7 33 3.4 38.1
12:50 1018 30.06 847 25.01 19.8 67.6 35 4.2 39.5
12:55 1018 30.06 847 25.01 19.8 67.6 35 4 39.1
13:00 1018 30.06 847 25.01 19.7 67.4 34 3.4 38.1
13:05 1018 30.06 847 25.01 19.4 67 38 4.9 40.8
13:10 1018 30.06 847 25.01 19.5 67.1 35 3.8 38.9
13:15 1018 30.06 847 25.01 19.5 67 37 4.6 40.2
13:20 1018 30.06 847 25.01 19.5 67 34 3.3 37.9
13:25 1018 30.06 847 25.01 19.5 67.1 38 5.1 41.2
13:30 1018 30.06 847 25.01 19.6 67.4 34 3.6 38.4
13:35 1018 30.06 847 25.01 19.7 67.4 34 3.6 38.4
13:40 1018 30.06 847 25.01 19.9 67.7 36 4.3 39.8
13:45 1018 30.06 847 25.01 20.2 68.3 33 3.4 38.1
13:50 1018 30.06 847 25.01 20.2 68.4 33 3.8 38.8
13:55 1018 30.06 847 25.01 20.1 68.3 33 3.5 38.3
14:00 1018 30.06 847 25.01 20.1 68.1 33 3.5 38.2
14:05 1018 30.06 847 25.01 20.2 68.3 32 3 37.4
14:10 1018 30.06 847 25.01 20.1 68.2 33 3.6 38.5
14:15 1018 30.06 847 25.01 20.2 68.3 33 3.7 38.7
14:20 1018 30.06 847 25.01 20.6 69 32 3.2 37.8
14:25 1017 30.03 846 24.98 20.4 68.7 35 4.5 40.1
14:30 1017 30.03 847 25.01 20.5 68.8 35 4.8 40.7
14:35 1017 30.03 847 25.01 20.2 68.4 36 4.9 40.8
14:40 1017 30.03 847 25.01 20.3 68.6 35 4.5 40.1
14:45 1017 30.03 847 25.01 20.3 68.6 35 4.6 40.3
14:50 1017 30.03 847 25.01 20.5 68.8 34 4.1 39.4
14:55 1017 30.03 847 25.01 20.4 68.6 32 3.4 38.2
15:00 1017 30.03 847 25.01 20 68 33 3.5 38.4
15:05 1017 30.03 847 25.01 19.9 67.7 33 3.5 38.3
15:10 1017 30.03 847 25.01 19.9 67.9 35 4.3 39.8
15:15 1017 30.03 846 24.98 19.9 67.7 35 4 39.2
15:20 1017 30.03 846 24.98 20.2 68.3 34 3.9 38.9
15:25 1017 30.03 846 24.98 20.3 68.5 34 3.9 39.1
15:30 1017 30.03 846 24.98 20.1 68.2 35 4.5 40.1
15:35 1017 30.03 846 24.98 20.1 68.3 34 3.9 39
15:40 1017 30.03 846 24.98 20.2 68.3 33 3.4 38.2
15:45 1017 30.03 846 24.98 20.3 68.5 32 3.4 38.1
15:50 1017 30.03 846 24.98 20.5 68.8 31 3.1 37.5
15:55 1017 30.03 846 24.98 20.6 69.1 31 3.2 37.7
16:00 1017 30.03 846 24.98 20.8 69.4 31 3.2 37.7
16:05 1017 30.03 846 24.98 20.9 69.6 31 3.1 37.6
16:10 1017 30.03 846 24.98 21 69.8 30 2.8 37
16:15 1016 30 846 24.98 21 69.9 29 2.7 36.9
16:20 1016 30 846 24.98 21.1 70 29 2.8 37
16:25 1016 30 846 24.98 21.2 70.1 30 3.2 37.7
16:30 1016 30 846 24.98 21.4 70.4 30 3 37.5
16:35 1016 30 846 24.98 21.8 71.3 28 2.7 36.9
16:40 1016 30 846 24.98 22.1 71.8 29 3.6 38.5
16:45 1016 30 846 24.98 22 71.6 28 3.1 37.5
16:50 1016 30 846 24.98 21.7 71 29 3.2 37.8
16:55 1016 30 845 24.95 21.6 70.9 28 2.7 36.8
17:00 1016 30 845 24.95 21.3 70.3 28 2.4 36.4
17:05 1016 30 845 24.95 21.2 70.2 28 2.3 36.1
17:10 1016 30 845 24.95 21.2 70.2 31 3.5 38.3
17:15 1016 30 845 24.95 21.2 70.1 33 4.6 40.3
17:20 1016 30 845 24.95 21.1 69.9 33 4.3 39.7
17:25 1016 30 845 24.95 21 69.7 34 4.8 40.6
17:30 1016 30 845 24.95 20.8 69.4 35 5 41
17:35 1016 30 845 24.95 20.5 69 36 5 41
17:40 1016 30 845 24.95 20.5 68.9 37 5.4 41.7
17:45 1016 30 845 24.95 20.5 69 35 4.9 40.8
17:50 1016 30 845 24.95 20.6 69.2 35 4.6 40.3
17:55 1016 30 845 24.95 20.7 69.2 35 4.9 40.8
18:00 1016 30 845 24.95 20.5 68.9 37 5.4 41.8
18:05 1016 30 845 24.95 20.5 68.8 37 5.5 41.9
18:10 1016 30 845 24.95 20.5 69 35 4.8 40.6
18:15 1016 30 845 24.95 20.4 68.7 36 5 40.9
18:20 1016 30 845 24.95 20.3 68.5 38 5.6 42.1
18:25 1016 30 845 24.95 20.2 68.4 36 4.9 40.8
18:30 1016 30 845 24.95 20.1 68.3 37 5 41
18:35 1016 30 845 24.95 20.3 68.5 36 4.8 40.7
18:40 1016 30 845 24.95 20.3 68.6 37 5.1 41.3
18:45 1016 30 845 24.95 20.4 68.7 35 4.5 40.2
18:50 1016 30 845 24.95 20.4 68.8 37 5.5 41.8
18:55 1016 30 845 24.95 20.2 68.4 38 5.5 41.9
19:00 1016 30 845 24.95 19.9 67.8 46 8.2 46.7
19:05 1016 30 845 24.95 19.6 67.2 43 6.8 44.3
19:10 1016 30 845 24.95 19.3 66.8 44 6.8 44.3
19:15 1016 30 845 24.95 19.3 66.7 44 6.8 44.3
19:20 1016 30 845 24.95 19.3 66.7 42 6.3 43.4
19:25 1016 30 845 24.95 19.1 66.4 44 6.5 43.8
19:30 1016 30 845 24.95 19.1 66.3 42 6 42.8
19:35 1016 30 845 24.95 19.3 66.8 35 3.7 38.7
19:40 1016 30 845 24.95 19.9 67.8 33 3.4 38
19:45 1016 30 845 24.95 19.7 67.5 33 3.3 37.9
19:50 1016 30 845 24.95 19.7 67.5 33 3.1 37.5
19:55 1016 30 845 24.95 19.6 67.2 34 3.3 37.9
20:00 1016 30 845 24.95 19.6 67.2 33 2.9 37.2
20:05 1016 30 845 24.95 19.6 67.3 35 3.8 38.8
20:10 1016 30 845 24.95 19.6 67.3 33 3 37.4
20:15 1016 30 845 24.95 19.6 67.2 33 3 37.4
20:20 1016 30 845 24.95 19.5 67.1 33 2.8 37.1
20:25 1016 30 845 24.95 19.7 67.4 32 2.6 36.6
20:30 1016 30 845 24.95 19.8 67.6 39 5.5 41.8
20:35 1016 30 845 24.95 19.8 67.6 33 3 37.5
20:40 1016 30 845 24.95 19.5 67 35 3.7 38.6
20:45 1016 30 845 24.95 19.1 66.4 37 4.2 39.5
20:50 1016 30 845 24.95 18.9 66.1 36 3.5 38.4
20:55 1016 30 845 24.95 18.7 65.6 36 3.6 38.5
21:00 1016 30 845 24.95 18.6 65.5 39 4.7 40.4
21:05 1016 30 845 24.95 18.5 65.2 39 4.2 39.6
21:10 1016 30 845 24.95 18.3 64.9 38 3.9 39.1
21:15 1016 30 845 24.95 18.2 64.7 40 4.3 39.8
21:20 1016 30 845 24.95 18 64.4 40 4.2 39.6
21:25 1016 30 845 24.95 18.3 64.9 39 4.1 39.4
21:30 1016 30 845 24.95 18.3 65 38 3.9 39.1
21:35 1016 30 845 24.95 18.3 65 39 4.3 39.8
21:40 1016 30 845 24.95 18.2 64.7 39 4 39.2
21:45 1016 30 845 24.95 18.1 64.6 46 6.3 43.4
21:50 1016 30 845 24.95 18.2 64.8 38 3.9 39
21:55 1016 30 845 24.95 18.2 64.8 39 4.1 39.4
22:00 1016 30 845 24.95 18.1 64.5 40 4.3 39.7
22:05 1016 30 845 24.95 17.9 64.3 42 4.9 40.8
22:10 1016 30 845 24.95 17.8 64.1 41 4.3 39.8
22:15 1016 30 845 24.95 17.7 63.9 41 4.4 39.9
22:20 1016 30 845 24.95 17.8 64.1 39 3.7 38.7
22:25 1016 30 845 24.95 17.9 64.2 39 4 39.1
22:30 1016 30 845 24.95 17.8 64.1 39 3.8 38.9
22:35 1016 30 845 24.95 17.9 64.1 43 5.4 41.7
22:40 1016 30 845 24.95 17.9 64.1 40 4.2 39.6
22:45 1016 30 845 24.95 17.6 63.6 41 4.5 40
22:50 1016 30 845 24.95 17.4 63.3 42 4.5 40.1
22:55 1016 30 845 24.95 17.3 63.1 42 4.4 39.9
23:00 1016 30 845 24.95 17.2 62.9 49 6.6 43.8
23:05 1016 30 845 24.95 17.2 63 43 4.6 40.3
23:10 1016 30 845 24.95 17.1 62.8 50 6.8 44.2
23:15 1016 30 845 24.95 17.2 62.9 42 4.1 39.4
23:20 1016 30 845 24.95 17.3 63.1 45 5.4 41.7
23:25 1016 30 845 24.95 17.2 63 40 3.8 38.8
23:30 1016 30 845 24.95 17.3 63.1 43 4.8 40.6
23:35 1016 30 845 24.95 16.9 62.4 45 5 41
23:40 1016 30 845 24.95 17 62.5 41 3.8 38.8
23:45 1016 30 845 24.95 17.1 62.7 47 5.7 42.3
23:50 1016 30 845 24.95 16.9 62.3 45 5.1 41.2
23:55 1016 30 845 24.95 16.5 61.7 48 5.5 41.9
24:00 1016 30 845 24.95 16.5 61.8 46 5 40.9